sensor_id;sensor_type;location;lat;lon;timestamp;P1;durP1;ratioP1;P2;durP2;ratioP2
13303;SDS011;6720;51.958;4.540;2022-09-12T00:01:06;17.73;;;15.97;;
13303;SDS011;6720;51.958;4.540;2022-09-12T00:03:33;17.30;;;15.47;;
13303;SDS011;6720;51.958;4.540;2022-09-12T00:06:00;18.13;;;16.33;;
13303;SDS011;6720;51.958;4.540;2022-09-12T00:08:25;18.40;;;16.50;;
13303;SDS011;6720;51.958;4.540;2022-09-12T00:10:50;19.67;;;17.53;;
13303;SDS011;6720;51.958;4.540;2022-09-12T00:13:16;18.40;;;16.50;;
13303;SDS011;6720;51.958;4.540;2022-09-12T00:15:42;19.23;;;17.10;;
13303;SDS011;6720;51.958;4.540;2022-09-12T00:18:08;20.23;;;18.10;;
13303;SDS011;6720;51.958;4.540;2022-09-12T00:20:44;18.50;;;16.67;;
13303;SDS011;6720;51.958;4.540;2022-09-12T00:23:11;17.83;;;16.03;;
13303;SDS011;6720;51.958;4.540;2022-09-12T00:25:43;17.70;;;15.90;;
13303;SDS011;6720;51.958;4.540;2022-09-12T00:28:10;18.80;;;17.00;;
13303;SDS011;6720;51.958;4.540;2022-09-12T00:30:42;18.50;;;16.57;;
13303;SDS011;6720;51.958;4.540;2022-09-12T00:33:15;17.90;;;16.10;;
13303;SDS011;6720;51.958;4.540;2022-09-12T00:35:57;17.27;;;15.43;;
13303;SDS011;6720;51.958;4.540;2022-09-12T00:38:22;18.23;;;16.20;;
13303;SDS011;6720;51.958;4.540;2022-09-12T00:40:48;17.63;;;15.80;;
13303;SDS011;6720;51.958;4.540;2022-09-12T00:43:31;17.47;;;15.63;;
13303;SDS011;6720;51.958;4.540;2022-09-12T00:46:00;19.00;;;15.90;;
13303;SDS011;6720;51.958;4.540;2022-09-12T00:48:32;16.53;;;14.83;;
13303;SDS011;6720;51.958;4.540;2022-09-12T00:51:02;15.53;;;14.03;;
13303;SDS011;6720;51.958;4.540;2022-09-12T00:53:27;15.67;;;14.17;;
13303;SDS011;6720;51.958;4.540;2022-09-12T00:55:53;16.10;;;14.47;;
13303;SDS011;6720;51.958;4.540;2022-09-12T01:00:53;16.63;;;14.73;;
13303;SDS011;6720;51.958;4.540;2022-09-12T01:03:19;15.60;;;13.97;;
13303;SDS011;6720;51.958;4.540;2022-09-12T01:06:20;16.87;;;14.77;;
13303;SDS011;6720;51.958;4.540;2022-09-12T01:08:47;16.40;;;14.67;;
13303;SDS011;6720;51.958;4.540;2022-09-12T01:11:13;16.03;;;14.40;;
13303;SDS011;6720;51.958;4.540;2022-09-12T01:13:40;17.17;;;15.07;;
13303;SDS011;6720;51.958;4.540;2022-09-12T01:16:07;18.03;;;16.23;;
13303;SDS011;6720;51.958;4.540;2022-09-12T01:24:11;16.63;;;14.93;;
13303;SDS011;6720;51.958;4.540;2022-09-12T01:38:57;18.00;;;15.87;;
13303;SDS011;6720;51.958;4.540;2022-09-12T01:41:39;16.20;;;14.50;;
13303;SDS011;6720;51.958;4.540;2022-09-12T01:44:37;17.37;;;15.60;;
13303;SDS011;6720;51.958;4.540;2022-09-12T01:47:16;17.07;;;15.37;;
13303;SDS011;6720;51.958;4.540;2022-09-12T01:52:22;18.43;;;15.33;;
13303;SDS011;6720;51.958;4.540;2022-09-12T01:54:54;17.70;;;15.50;;
13303;SDS011;6720;51.958;4.540;2022-09-12T01:57:33;19.17;;;15.17;;
13303;SDS011;6720;51.958;4.540;2022-09-12T02:00:04;18.60;;;16.17;;
13303;SDS011;6720;51.958;4.540;2022-09-12T02:02:37;19.93;;;16.87;;
13303;SDS011;6720;51.958;4.540;2022-09-12T02:10:20;20.97;;;17.07;;
13303;SDS011;6720;51.958;4.540;2022-09-12T02:12:52;21.73;;;17.33;;
13303;SDS011;6720;51.958;4.540;2022-09-12T02:15:21;20.57;;;18.00;;
13303;SDS011;6720;51.958;4.540;2022-09-12T02:17:51;23.53;;;18.47;;
13303;SDS011;6720;51.958;4.540;2022-09-12T02:20:25;22.63;;;18.10;;
13303;SDS011;6720;51.958;4.540;2022-09-12T02:22:53;22.13;;;17.60;;
13303;SDS011;6720;51.958;4.540;2022-09-12T02:25:21;22.50;;;18.37;;
13303;SDS011;6720;51.958;4.540;2022-09-12T02:27:53;22.00;;;17.87;;
13303;SDS011;6720;51.958;4.540;2022-09-12T02:30:24;20.47;;;18.27;;
13303;SDS011;6720;51.958;4.540;2022-09-12T02:32:55;20.67;;;17.83;;
13303;SDS011;6720;51.958;4.540;2022-09-12T02:35:30;21.80;;;19.07;;
13303;SDS011;6720;51.958;4.540;2022-09-12T02:38:04;22.03;;;18.73;;
13303;SDS011;6720;51.958;4.540;2022-09-12T02:40:34;20.97;;;18.20;;
13303;SDS011;6720;51.958;4.540;2022-09-12T02:43:00;21.10;;;17.40;;
13303;SDS011;6720;51.958;4.540;2022-09-12T02:45:28;22.57;;;18.80;;
13303;SDS011;6720;51.958;4.540;2022-09-12T02:48:11;22.27;;;19.03;;
13303;SDS011;6720;51.958;4.540;2022-09-12T02:50:40;22.10;;;19.70;;
13303;SDS011;6720;51.958;4.540;2022-09-12T02:53:06;20.67;;;18.43;;
13303;SDS011;6720;51.958;4.540;2022-09-12T02:55:34;21.73;;;18.20;;
13303;SDS011;6720;51.958;4.540;2022-09-12T02:58:01;22.43;;;19.03;;
13303;SDS011;6720;51.958;4.540;2022-09-12T03:00:29;20.93;;;18.07;;
13303;SDS011;6720;51.958;4.540;2022-09-12T03:03:25;21.80;;;17.87;;
13303;SDS011;6720;51.958;4.540;2022-09-12T03:06:05;23.00;;;16.60;;
13303;SDS011;6720;51.958;4.540;2022-09-12T03:11:48;19.93;;;17.30;;
13303;SDS011;6720;51.958;4.540;2022-09-12T03:14:42;21.70;;;17.97;;
13303;SDS011;6720;51.958;4.540;2022-09-12T03:17:15;22.50;;;18.40;;
13303;SDS011;6720;51.958;4.540;2022-09-12T03:20:10;20.10;;;17.27;;
13303;SDS011;6720;51.958;4.540;2022-09-12T03:22:51;21.13;;;16.87;;
13303;SDS011;6720;51.958;4.540;2022-09-12T03:25:42;26.17;;;19.63;;
13303;SDS011;6720;51.958;4.540;2022-09-12T03:28:13;21.50;;;17.77;;
13303;SDS011;6720;51.958;4.540;2022-09-12T03:30:41;22.20;;;18.67;;
13303;SDS011;6720;51.958;4.540;2022-09-12T03:33:12;21.47;;;18.37;;
13303;SDS011;6720;51.958;4.540;2022-09-12T03:35:39;21.10;;;18.70;;
13303;SDS011;6720;51.958;4.540;2022-09-12T03:38:05;20.30;;;17.73;;
13303;SDS011;6720;51.958;4.540;2022-09-12T03:40:32;22.33;;;18.17;;
13303;SDS011;6720;51.958;4.540;2022-09-12T03:43:01;19.67;;;17.57;;
13303;SDS011;6720;51.958;4.540;2022-09-12T03:45:28;23.00;;;18.23;;
13303;SDS011;6720;51.958;4.540;2022-09-12T03:47:54;20.67;;;18.43;;
13303;SDS011;6720;51.958;4.540;2022-09-12T03:50:19;22.73;;;18.53;;
13303;SDS011;6720;51.958;4.540;2022-09-12T03:52:44;20.07;;;17.60;;
13303;SDS011;6720;51.958;4.540;2022-09-12T03:55:10;18.90;;;16.97;;
13303;SDS011;6720;51.958;4.540;2022-09-12T03:57:36;21.97;;;18.17;;
13303;SDS011;6720;51.958;4.540;2022-09-12T04:00:02;19.63;;;16.63;;
13303;SDS011;6720;51.958;4.540;2022-09-12T04:02:29;21.93;;;17.67;;
13303;SDS011;6720;51.958;4.540;2022-09-12T04:04:55;18.83;;;16.83;;
13303;SDS011;6720;51.958;4.540;2022-09-12T04:07:20;20.97;;;17.87;;
13303;SDS011;6720;51.958;4.540;2022-09-12T04:09:45;21.77;;;18.43;;
13303;SDS011;6720;51.958;4.540;2022-09-12T04:12:11;19.23;;;16.90;;
13303;SDS011;6720;51.958;4.540;2022-09-12T04:14:38;21.67;;;18.23;;
13303;SDS011;6720;51.958;4.540;2022-09-12T04:17:03;20.23;;;18.03;;
13303;SDS011;6720;51.958;4.540;2022-09-12T04:19:29;22.77;;;17.63;;
13303;SDS011;6720;51.958;4.540;2022-09-12T04:21:54;20.97;;;18.17;;
13303;SDS011;6720;51.958;4.540;2022-09-12T04:24:20;22.03;;;18.37;;
13303;SDS011;6720;51.958;4.540;2022-09-12T04:26:45;21.37;;;17.70;;
13303;SDS011;6720;51.958;4.540;2022-09-12T04:29:11;20.13;;;17.87;;
13303;SDS011;6720;51.958;4.540;2022-09-12T04:31:39;20.53;;;18.23;;
13303;SDS011;6720;51.958;4.540;2022-09-12T04:34:05;23.20;;;18.10;;
13303;SDS011;6720;51.958;4.540;2022-09-12T04:36:30;20.17;;;16.73;;
13303;SDS011;6720;51.958;4.540;2022-09-12T04:38:57;24.37;;;19.40;;
13303;SDS011;6720;51.958;4.540;2022-09-12T04:41:25;22.57;;;19.10;;
13303;SDS011;6720;51.958;4.540;2022-09-12T04:43:53;22.50;;;18.97;;
13303;SDS011;6720;51.958;4.540;2022-09-12T04:46:23;22.37;;;18.27;;
13303;SDS011;6720;51.958;4.540;2022-09-12T04:48:49;20.27;;;17.77;;
13303;SDS011;6720;51.958;4.540;2022-09-12T04:51:19;22.00;;;18.50;;
13303;SDS011;6720;51.958;4.540;2022-09-12T04:53:47;24.27;;;19.43;;
13303;SDS011;6720;51.958;4.540;2022-09-12T04:56:14;22.80;;;19.23;;
13303;SDS011;6720;51.958;4.540;2022-09-12T04:58:39;24.60;;;19.70;;
13303;SDS011;6720;51.958;4.540;2022-09-12T05:01:06;22.80;;;19.17;;
13303;SDS011;6720;51.958;4.540;2022-09-12T05:03:33;24.90;;;21.03;;
13303;SDS011;6720;51.958;4.540;2022-09-12T05:06:01;24.57;;;18.93;;
13303;SDS011;6720;51.958;4.540;2022-09-12T05:08:27;24.53;;;20.37;;
13303;SDS011;6720;51.958;4.540;2022-09-12T05:10:53;20.00;;;17.80;;
13303;SDS011;6720;51.958;4.540;2022-09-12T05:13:19;28.33;;;21.13;;
13303;SDS011;6720;51.958;4.540;2022-09-12T05:15:52;22.57;;;19.23;;
13303;SDS011;6720;51.958;4.540;2022-09-12T05:18:18;26.57;;;20.73;;
13303;SDS011;6720;51.958;4.540;2022-09-12T05:20:43;25.13;;;20.57;;
13303;SDS011;6720;51.958;4.540;2022-09-12T05:23:09;25.10;;;20.03;;
13303;SDS011;6720;51.958;4.540;2022-09-12T05:25:34;25.93;;;20.97;;
13303;SDS011;6720;51.958;4.540;2022-09-12T05:28:00;26.00;;;21.37;;
13303;SDS011;6720;51.958;4.540;2022-09-12T05:30:25;27.13;;;21.20;;
13303;SDS011;6720;51.958;4.540;2022-09-12T05:32:50;26.83;;;21.10;;
13303;SDS011;6720;51.958;4.540;2022-09-12T05:35:16;27.67;;;21.40;;
13303;SDS011;6720;51.958;4.540;2022-09-12T05:37:42;27.80;;;21.30;;
13303;SDS011;6720;51.958;4.540;2022-09-12T05:40:07;27.93;;;22.43;;
13303;SDS011;6720;51.958;4.540;2022-09-12T05:42:33;29.60;;;22.77;;
13303;SDS011;6720;51.958;4.540;2022-09-12T05:44:58;28.53;;;22.50;;
13303;SDS011;6720;51.958;4.540;2022-09-12T05:47:24;29.07;;;22.33;;
13303;SDS011;6720;51.958;4.540;2022-09-12T05:49:49;26.87;;;21.47;;
13303;SDS011;6720;51.958;4.540;2022-09-12T05:52:16;27.07;;;22.00;;
13303;SDS011;6720;51.958;4.540;2022-09-12T05:54:42;28.73;;;23.07;;
13303;SDS011;6720;51.958;4.540;2022-09-12T05:57:07;27.73;;;22.20;;
13303;SDS011;6720;51.958;4.540;2022-09-12T05:59:32;26.43;;;22.03;;
13303;SDS011;6720;51.958;4.540;2022-09-12T06:01:58;31.27;;;23.97;;
13303;SDS011;6720;51.958;4.540;2022-09-12T06:04:24;29.27;;;23.53;;
13303;SDS011;6720;51.958;4.540;2022-09-12T06:06:50;29.23;;;23.07;;
13303;SDS011;6720;51.958;4.540;2022-09-12T06:09:16;28.73;;;21.87;;
13303;SDS011;6720;51.958;4.540;2022-09-12T06:11:42;31.67;;;23.77;;
13303;SDS011;6720;51.958;4.540;2022-09-12T06:14:09;35.20;;;25.13;;
13303;SDS011;6720;51.958;4.540;2022-09-12T06:16:36;30.63;;;23.27;;
13303;SDS011;6720;51.958;4.540;2022-09-12T06:19:03;28.73;;;24.37;;
13303;SDS011;6720;51.958;4.540;2022-09-12T06:21:31;32.47;;;25.23;;
13303;SDS011;6720;51.958;4.540;2022-09-12T06:23:58;30.90;;;24.53;;
13303;SDS011;6720;51.958;4.540;2022-09-12T06:26:24;34.60;;;25.20;;
13303;SDS011;6720;51.958;4.540;2022-09-12T06:28:50;34.93;;;27.33;;
13303;SDS011;6720;51.958;4.540;2022-09-12T06:31:26;32.20;;;25.73;;
13303;SDS011;6720;51.958;4.540;2022-09-12T06:33:54;34.47;;;26.63;;
13303;SDS011;6720;51.958;4.540;2022-09-12T06:36:24;36.97;;;27.57;;
13303;SDS011;6720;51.958;4.540;2022-09-12T06:38:53;32.33;;;26.63;;
13303;SDS011;6720;51.958;4.540;2022-09-12T06:41:21;32.53;;;27.07;;
13303;SDS011;6720;51.958;4.540;2022-09-12T06:43:46;38.43;;;28.17;;
13303;SDS011;6720;51.958;4.540;2022-09-12T06:46:11;34.33;;;27.37;;
13303;SDS011;6720;51.958;4.540;2022-09-12T06:48:37;82.27;;;61.13;;
13303;SDS011;6720;51.958;4.540;2022-09-12T06:51:08;57.97;;;44.63;;
13303;SDS011;6720;51.958;4.540;2022-09-12T06:53:35;33.73;;;26.97;;
13303;SDS011;6720;51.958;4.540;2022-09-12T06:58:29;35.17;;;30.10;;
13303;SDS011;6720;51.958;4.540;2022-09-12T07:01:02;40.13;;;33.13;;
13303;SDS011;6720;51.958;4.540;2022-09-12T07:03:29;37.37;;;31.10;;
13303;SDS011;6720;51.958;4.540;2022-09-12T07:05:55;42.97;;;33.70;;
13303;SDS011;6720;51.958;4.540;2022-09-12T07:08:20;37.60;;;30.63;;
13303;SDS011;6720;51.958;4.540;2022-09-12T07:10:46;45.07;;;36.70;;
13303;SDS011;6720;51.958;4.540;2022-09-12T07:13:11;31.23;;;27.67;;
13303;SDS011;6720;51.958;4.540;2022-09-12T07:15:37;35.03;;;28.47;;
13303;SDS011;6720;51.958;4.540;2022-09-12T07:18:03;45.80;;;35.73;;
13303;SDS011;6720;51.958;4.540;2022-09-12T07:20:28;44.83;;;34.83;;
13303;SDS011;6720;51.958;4.540;2022-09-12T07:22:57;44.53;;;35.27;;
13303;SDS011;6720;51.958;4.540;2022-09-12T07:25:22;42.20;;;33.00;;
13303;SDS011;6720;51.958;4.540;2022-09-12T07:27:48;36.70;;;30.10;;
13303;SDS011;6720;51.958;4.540;2022-09-12T07:30:13;27.47;;;23.20;;
13303;SDS011;6720;51.958;4.540;2022-09-12T07:32:40;28.87;;;23.63;;
13303;SDS011;6720;51.958;4.540;2022-09-12T07:35:05;32.03;;;25.80;;
13303;SDS011;6720;51.958;4.540;2022-09-12T07:37:31;30.00;;;23.83;;
13303;SDS011;6720;51.958;4.540;2022-09-12T07:39:56;40.43;;;33.73;;
13303;SDS011;6720;51.958;4.540;2022-09-12T07:42:22;28.33;;;23.73;;
13303;SDS011;6720;51.958;4.540;2022-09-12T07:44:48;26.97;;;22.17;;
13303;SDS011;6720;51.958;4.540;2022-09-12T07:47:14;29.30;;;25.20;;
13303;SDS011;6720;51.958;4.540;2022-09-12T07:49:40;28.23;;;23.33;;
13303;SDS011;6720;51.958;4.540;2022-09-12T07:52:05;28.73;;;24.33;;
13303;SDS011;6720;51.958;4.540;2022-09-12T07:54:31;33.37;;;28.20;;
13303;SDS011;6720;51.958;4.540;2022-09-12T07:56:57;43.00;;;34.83;;
13303;SDS011;6720;51.958;4.540;2022-09-12T07:59:22;38.30;;;32.87;;
13303;SDS011;6720;51.958;4.540;2022-09-12T08:01:48;28.47;;;25.40;;
13303;SDS011;6720;51.958;4.540;2022-09-12T08:04:13;36.53;;;31.47;;
13303;SDS011;6720;51.958;4.540;2022-09-12T08:06:38;22.73;;;20.20;;
13303;SDS011;6720;51.958;4.540;2022-09-12T08:09:04;33.23;;;28.20;;
13303;SDS011;6720;51.958;4.540;2022-09-12T08:11:30;25.43;;;21.10;;
13303;SDS011;6720;51.958;4.540;2022-09-12T08:13:55;25.03;;;21.03;;
13303;SDS011;6720;51.958;4.540;2022-09-12T08:16:25;25.00;;;20.60;;
13303;SDS011;6720;51.958;4.540;2022-09-12T08:18:53;32.27;;;26.67;;
13303;SDS011;6720;51.958;4.540;2022-09-12T08:21:25;29.60;;;22.50;;
13303;SDS011;6720;51.958;4.540;2022-09-12T08:23:53;25.43;;;20.07;;
13303;SDS011;6720;51.958;4.540;2022-09-12T08:26:20;31.60;;;27.23;;
13303;SDS011;6720;51.958;4.540;2022-09-12T08:28:46;24.57;;;21.13;;
13303;SDS011;6720;51.958;4.540;2022-09-12T08:31:13;23.00;;;18.17;;
13303;SDS011;6720;51.958;4.540;2022-09-12T08:33:40;19.43;;;15.80;;
13303;SDS011;6720;51.958;4.540;2022-09-12T08:36:09;28.47;;;24.57;;
13303;SDS011;6720;51.958;4.540;2022-09-12T08:38:43;24.07;;;19.70;;
13303;SDS011;6720;51.958;4.540;2022-09-12T08:49:14;16.60;;;13.40;;
13303;SDS011;6720;51.958;4.540;2022-09-12T08:51:49;18.87;;;15.07;;
13303;SDS011;6720;51.958;4.540;2022-09-12T08:54:20;21.67;;;18.67;;
13303;SDS011;6720;51.958;4.540;2022-09-12T08:56:48;21.60;;;19.33;;
13303;SDS011;6720;51.958;4.540;2022-09-12T08:59:15;24.57;;;21.93;;
13303;SDS011;6720;51.958;4.540;2022-09-12T09:01:42;10.13;;;9.13;;
13303;SDS011;6720;51.958;4.540;2022-09-12T09:04:54;10.33;;;8.77;;
13303;SDS011;6720;51.958;4.540;2022-09-12T09:10:23;9.83;;;8.83;;
13303;SDS011;6720;51.958;4.540;2022-09-12T09:16:31;9.20;;;8.30;;
13303;SDS011;6720;51.958;4.540;2022-09-12T09:19:05;11.83;;;10.60;;
13303;SDS011;6720;51.958;4.540;2022-09-12T09:21:56;11.47;;;9.87;;
13303;SDS011;6720;51.958;4.540;2022-09-12T09:24:26;10.57;;;9.47;;
13303;SDS011;6720;51.958;4.540;2022-09-12T09:26:59;10.57;;;9.53;;
13303;SDS011;6720;51.958;4.540;2022-09-12T09:29:33;9.37;;;7.90;;
13303;SDS011;6720;51.958;4.540;2022-09-12T09:32:09;9.10;;;8.20;;
13303;SDS011;6720;51.958;4.540;2022-09-12T09:34:41;9.30;;;8.30;;
13303;SDS011;6720;51.958;4.540;2022-09-12T09:37:19;9.67;;;8.70;;
13303;SDS011;6720;51.958;4.540;2022-09-12T09:45:23;8.27;;;7.47;;
13303;SDS011;6720;51.958;4.540;2022-09-12T09:50:49;7.73;;;6.50;;
13303;SDS011;6720;51.958;4.540;2022-09-12T09:55:54;8.50;;;7.60;;
13303;SDS011;6720;51.958;4.540;2022-09-12T09:58:27;8.70;;;7.83;;
13303;SDS011;6720;51.958;4.540;2022-09-12T10:01:04;9.40;;;6.87;;
13303;SDS011;6720;51.958;4.540;2022-09-12T10:03:36;8.40;;;7.53;;
13303;SDS011;6720;51.958;4.540;2022-09-12T10:06:07;9.10;;;8.13;;
13303;SDS011;6720;51.958;4.540;2022-09-12T10:08:45;8.30;;;7.43;;
13303;SDS011;6720;51.958;4.540;2022-09-12T10:16:18;8.63;;;7.83;;
13303;SDS011;6720;51.958;4.540;2022-09-12T10:18:46;8.30;;;7.53;;
13303;SDS011;6720;51.958;4.540;2022-09-12T10:21:17;8.27;;;7.07;;
13303;SDS011;6720;51.958;4.540;2022-09-12T10:23:49;9.10;;;7.83;;
13303;SDS011;6720;51.958;4.540;2022-09-12T10:26:18;8.40;;;7.60;;
13303;SDS011;6720;51.958;4.540;2022-09-12T10:28:52;7.03;;;6.23;;
13303;SDS011;6720;51.958;4.540;2022-09-12T10:31:27;8.57;;;7.50;;
13303;SDS011;6720;51.958;4.540;2022-09-12T10:33:57;7.77;;;6.73;;
13303;SDS011;6720;51.958;4.540;2022-09-12T10:36:24;7.00;;;5.70;;
13303;SDS011;6720;51.958;4.540;2022-09-12T10:38:51;6.70;;;5.33;;
13303;SDS011;6720;51.958;4.540;2022-09-12T10:41:20;6.07;;;5.23;;
13303;SDS011;6720;51.958;4.540;2022-09-12T10:43:46;6.03;;;5.43;;
13303;SDS011;6720;51.958;4.540;2022-09-12T10:48:40;6.83;;;5.97;;
13303;SDS011;6720;51.958;4.540;2022-09-12T10:53:47;5.27;;;4.77;;
13303;SDS011;6720;51.958;4.540;2022-09-12T10:56:20;5.73;;;4.87;;
13303;SDS011;6720;51.958;4.540;2022-09-12T11:01:39;7.40;;;5.37;;
13303;SDS011;6720;51.958;4.540;2022-09-12T11:07:02;6.83;;;6.20;;
13303;SDS011;6720;51.958;4.540;2022-09-12T11:15:06;8.53;;;6.40;;
13303;SDS011;6720;51.958;4.540;2022-09-12T11:20:31;7.10;;;6.40;;
13303;SDS011;6720;51.958;4.540;2022-09-12T11:25:48;5.47;;;4.93;;
13303;SDS011;6720;51.958;4.540;2022-09-12T11:28:42;7.57;;;6.70;;
13303;SDS011;6720;51.958;4.540;2022-09-12T11:33:51;7.67;;;6.40;;
13303;SDS011;6720;51.958;4.540;2022-09-12T11:39:11;7.10;;;6.50;;
13303;SDS011;6720;51.958;4.540;2022-09-12T11:41:40;5.93;;;5.10;;
13303;SDS011;6720;51.958;4.540;2022-09-12T11:46:39;6.83;;;6.13;;
13303;SDS011;6720;51.958;4.540;2022-09-12T11:51:40;6.20;;;5.60;;
13303;SDS011;6720;51.958;4.540;2022-09-12T11:56:48;7.37;;;6.23;;
13303;SDS011;6720;51.958;4.540;2022-09-12T12:01:47;7.57;;;6.30;;
13303;SDS011;6720;51.958;4.540;2022-09-12T12:04:19;6.87;;;6.17;;
13303;SDS011;6720;51.958;4.540;2022-09-12T12:06:52;7.90;;;5.30;;
13303;SDS011;6720;51.958;4.540;2022-09-12T12:09:25;6.97;;;5.17;;
13303;SDS011;6720;51.958;4.540;2022-09-12T12:11:52;7.23;;;6.03;;
13303;SDS011;6720;51.958;4.540;2022-09-12T12:14:25;9.80;;;6.43;;
13303;SDS011;6720;51.958;4.540;2022-09-12T12:16:57;9.10;;;5.97;;
13303;SDS011;6720;51.958;4.540;2022-09-12T12:21:54;7.93;;;6.83;;
13303;SDS011;6720;51.958;4.540;2022-09-12T12:24:27;6.53;;;5.83;;
13303;SDS011;6720;51.958;4.540;2022-09-12T12:27:21;8.17;;;6.80;;
13303;SDS011;6720;51.958;4.540;2022-09-12T12:29:49;7.80;;;7.00;;
13303;SDS011;6720;51.958;4.540;2022-09-12T12:34:41;7.07;;;6.37;;
13303;SDS011;6720;51.958;4.540;2022-09-12T12:44:58;8.47;;;7.63;;
13303;SDS011;6720;51.958;4.540;2022-09-12T12:52:24;7.10;;;6.40;;
13303;SDS011;6720;51.958;4.540;2022-09-12T12:54:56;8.53;;;6.47;;
13303;SDS011;6720;51.958;4.540;2022-09-12T13:05:29;5.97;;;5.20;;
13303;SDS011;6720;51.958;4.540;2022-09-12T13:08:04;7.40;;;5.37;;
13303;SDS011;6720;51.958;4.540;2022-09-12T13:10:34;7.20;;;6.17;;
13303;SDS011;6720;51.958;4.540;2022-09-12T13:13:01;7.03;;;5.30;;
13303;SDS011;6720;51.958;4.540;2022-09-12T13:18:02;6.33;;;5.70;;
13303;SDS011;6720;51.958;4.540;2022-09-12T13:20:34;6.17;;;5.10;;
13303;SDS011;6720;51.958;4.540;2022-09-12T13:23:18;6.17;;;5.40;;
13303;SDS011;6720;51.958;4.540;2022-09-12T13:25:53;6.03;;;5.20;;
13303;SDS011;6720;51.958;4.540;2022-09-12T13:28:20;5.80;;;5.30;;
13303;SDS011;6720;51.958;4.540;2022-09-12T13:33:34;5.47;;;5.07;;
13303;SDS011;6720;51.958;4.540;2022-09-12T13:44:41;4.93;;;4.50;;
13303;SDS011;6720;51.958;4.540;2022-09-12T13:47:14;5.60;;;4.50;;
13303;SDS011;6720;51.958;4.540;2022-09-12T13:49:45;5.30;;;4.80;;
13303;SDS011;6720;51.958;4.540;2022-09-12T13:52:19;6.37;;;4.17;;
13303;SDS011;6720;51.958;4.540;2022-09-12T13:54:48;5.83;;;5.27;;
13303;SDS011;6720;51.958;4.540;2022-09-12T14:00:04;6.57;;;4.20;;
13303;SDS011;6720;51.958;4.540;2022-09-12T14:02:52;4.07;;;3.67;;
13303;SDS011;6720;51.958;4.540;2022-09-12T14:05:38;5.77;;;5.27;;
13303;SDS011;6720;51.958;4.540;2022-09-12T14:08:08;4.10;;;3.80;;
13303;SDS011;6720;51.958;4.540;2022-09-12T14:10:37;5.63;;;4.00;;
13303;SDS011;6720;51.958;4.540;2022-09-12T14:13:12;4.33;;;3.93;;
13303;SDS011;6720;51.958;4.540;2022-09-12T14:15:42;5.47;;;4.50;;
13303;SDS011;6720;51.958;4.540;2022-09-12T14:18:18;4.30;;;3.60;;
13303;SDS011;6720;51.958;4.540;2022-09-12T14:20:47;5.20;;;4.43;;
13303;SDS011;6720;51.958;4.540;2022-09-12T14:25:59;4.50;;;4.03;;
13303;SDS011;6720;51.958;4.540;2022-09-12T14:28:28;5.00;;;4.40;;
13303;SDS011;6720;51.958;4.540;2022-09-12T14:31:05;3.83;;;3.53;;
13303;SDS011;6720;51.958;4.540;2022-09-12T14:33:49;4.20;;;3.83;;
13303;SDS011;6720;51.958;4.540;2022-09-12T14:36:18;7.83;;;4.10;;
13303;SDS011;6720;51.958;4.540;2022-09-12T14:38:48;4.47;;;4.07;;
13303;SDS011;6720;51.958;4.540;2022-09-12T14:41:35;5.30;;;4.17;;
13303;SDS011;6720;51.958;4.540;2022-09-12T14:44:03;5.47;;;3.63;;
13303;SDS011;6720;51.958;4.540;2022-09-12T14:46:39;3.70;;;3.40;;
13303;SDS011;6720;51.958;4.540;2022-09-12T14:49:16;4.53;;;4.07;;
13303;SDS011;6720;51.958;4.540;2022-09-12T14:56:54;4.47;;;3.63;;
13303;SDS011;6720;51.958;4.540;2022-09-12T15:04:44;3.23;;;3.03;;
13303;SDS011;6720;51.958;4.540;2022-09-12T15:07:14;5.00;;;3.77;;
13303;SDS011;6720;51.958;4.540;2022-09-12T15:09:59;4.83;;;3.30;;
13303;SDS011;6720;51.958;4.540;2022-09-12T15:12:26;3.90;;;3.60;;
13303;SDS011;6720;51.958;4.540;2022-09-12T15:14:52;4.33;;;3.93;;
13303;SDS011;6720;51.958;4.540;2022-09-12T15:17:23;4.40;;;4.00;;
13303;SDS011;6720;51.958;4.540;2022-09-12T15:19:48;6.30;;;4.70;;
13303;SDS011;6720;51.958;4.540;2022-09-12T15:22:14;4.63;;;3.57;;
13303;SDS011;6720;51.958;4.540;2022-09-12T15:24:39;5.63;;;5.13;;
13303;SDS011;6720;51.958;4.540;2022-09-12T15:27:09;5.13;;;3.83;;
13303;SDS011;6720;51.958;4.540;2022-09-12T15:29:36;5.27;;;4.10;;
13303;SDS011;6720;51.958;4.540;2022-09-12T15:32:02;6.50;;;5.90;;
13303;SDS011;6720;51.958;4.540;2022-09-12T15:34:28;4.20;;;3.80;;
13303;SDS011;6720;51.958;4.540;2022-09-12T15:36:53;7.73;;;6.27;;
13303;SDS011;6720;51.958;4.540;2022-09-12T15:39:18;15.23;;;12.33;;
13303;SDS011;6720;51.958;4.540;2022-09-12T15:41:44;6.23;;;5.63;;
13303;SDS011;6720;51.958;4.540;2022-09-12T15:44:11;7.97;;;7.17;;
13303;SDS011;6720;51.958;4.540;2022-09-12T15:46:38;5.47;;;4.97;;
13303;SDS011;6720;51.958;4.540;2022-09-12T15:49:04;5.47;;;4.30;;
13303;SDS011;6720;51.958;4.540;2022-09-12T15:51:30;7.00;;;5.73;;
13303;SDS011;6720;51.958;4.540;2022-09-12T15:53:56;9.07;;;7.13;;
13303;SDS011;6720;51.958;4.540;2022-09-12T15:56:22;7.60;;;5.73;;
13303;SDS011;6720;51.958;4.540;2022-09-12T15:58:47;8.00;;;6.17;;
13303;SDS011;6720;51.958;4.540;2022-09-12T16:01:14;16.23;;;12.40;;
13303;SDS011;6720;51.958;4.540;2022-09-12T16:03:41;6.10;;;4.50;;
13303;SDS011;6720;51.958;4.540;2022-09-12T16:06:07;12.40;;;9.00;;
13303;SDS011;6720;51.958;4.540;2022-09-12T16:08:34;5.00;;;4.50;;
13303;SDS011;6720;51.958;4.540;2022-09-12T16:11:01;41.40;;;21.43;;
13303;SDS011;6720;51.958;4.540;2022-09-12T16:13:29;23.03;;;14.17;;
13303;SDS011;6720;51.958;4.540;2022-09-12T16:15:57;15.07;;;11.30;;
13303;SDS011;6720;51.958;4.540;2022-09-12T16:18:24;7.80;;;6.50;;
13303;SDS011;6720;51.958;4.540;2022-09-12T16:20:55;39.20;;;26.60;;
13303;SDS011;6720;51.958;4.540;2022-09-12T16:23:21;19.73;;;15.77;;
13303;SDS011;6720;51.958;4.540;2022-09-12T16:26:21;8.80;;;7.73;;
13303;SDS011;6720;51.958;4.540;2022-09-12T16:28:40;8.63;;;7.73;;
13303;SDS011;6720;51.958;4.540;2022-09-12T16:31:07;9.20;;;6.53;;
13303;SDS011;6720;51.958;4.540;2022-09-12T16:33:35;26.73;;;21.67;;
13303;SDS011;6720;51.958;4.540;2022-09-12T16:36:02;5.53;;;4.60;;
13303;SDS011;6720;51.958;4.540;2022-09-12T16:38:30;12.87;;;9.87;;
13303;SDS011;6720;51.958;4.540;2022-09-12T16:41:00;5.17;;;4.70;;
13303;SDS011;6720;51.958;4.540;2022-09-12T16:43:26;24.67;;;21.90;;
13303;SDS011;6720;51.958;4.540;2022-09-12T16:48:44;7.77;;;5.70;;
13303;SDS011;6720;51.958;4.540;2022-09-12T16:51:13;30.07;;;24.27;;
13303;SDS011;6720;51.958;4.540;2022-09-12T16:53:40;18.33;;;15.53;;
13303;SDS011;6720;51.958;4.540;2022-09-12T16:56:06;33.77;;;25.87;;
13303;SDS011;6720;51.958;4.540;2022-09-12T16:58:33;25.77;;;21.73;;
13303;SDS011;6720;51.958;4.540;2022-09-12T17:01:04;9.30;;;7.83;;
13303;SDS011;6720;51.958;4.540;2022-09-12T17:03:32;21.70;;;18.20;;
13303;SDS011;6720;51.958;4.540;2022-09-12T17:06:02;7.17;;;6.47;;
13303;SDS011;6720;51.958;4.540;2022-09-12T17:08:28;47.50;;;36.33;;
13303;SDS011;6720;51.958;4.540;2022-09-12T17:11:00;21.57;;;17.47;;
13303;SDS011;6720;51.958;4.540;2022-09-12T17:13:28;22.23;;;17.57;;
13303;SDS011;6720;51.958;4.540;2022-09-12T17:15:53;44.07;;;36.43;;
13303;SDS011;6720;51.958;4.540;2022-09-12T17:18:19;12.77;;;10.10;;
13303;SDS011;6720;51.958;4.540;2022-09-12T17:20:45;6.77;;;5.60;;
13303;SDS011;6720;51.958;4.540;2022-09-12T17:23:11;27.93;;;19.87;;
13303;SDS011;6720;51.958;4.540;2022-09-12T17:25:36;22.20;;;16.10;;
13303;SDS011;6720;51.958;4.540;2022-09-12T17:28:01;9.47;;;7.83;;
13303;SDS011;6720;51.958;4.540;2022-09-12T17:30:32;6.27;;;4.60;;
13303;SDS011;6720;51.958;4.540;2022-09-12T17:32:58;6.50;;;4.50;;
13303;SDS011;6720;51.958;4.540;2022-09-12T17:35:24;9.60;;;7.13;;
13303;SDS011;6720;51.958;4.540;2022-09-12T17:37:50;6.00;;;3.97;;